Time;durP1;ratioP1;P1;durP2;ratioP2;P2;SDS_P1;SDS_P2;PMS_P1;PMS_P2;Temp;Humidity;BMP_temperature;BMP_pressure;BME280_temperature;BME280_humidity;BME280_pressure;Samples;Min_cycle;Max_cycle;Signal;HPM_P1;HPM_P2
2022/12/09 00:00:31;;;;;;;32.85;19.83;;;;;;;2.44;100.00;100558.50;5049408;28;20049;-52
2022/12/09 00:02:59;;;;;;;33.55;20.30;;;;;;;2.41;100.00;100554.28;5052186;28;20434;-58
2022/12/09 00:05:28;;;;;;;33.08;19.55;;;;;;;2.42;100.00;100550.78;5050311;28;20413;-58
2022/12/09 00:07:57;;;;;;;37.00;20.65;;;;;;;2.39;100.00;100550.91;5049084;28;20052;-58
2022/12/09 00:10:25;;;;;;;34.22;20.33;;;;;;;2.36;100.00;100553.63;5047191;28;20052;-58
2022/12/09 00:12:55;;;;;;;33.47;19.67;;;;;;;2.40;100.00;100554.34;5046908;28;20053;-58
2022/12/09 00:15:23;;;;;;;34.00;19.75;;;;;;;2.38;100.00;100549.19;5048534;28;20053;-58
2022/12/09 00:17:51;;;;;;;32.40;19.25;;;;;;;2.39;100.00;100556.09;5052114;28;20818;-59
2022/12/09 00:20:19;;;;;;;32.80;18.23;;;;;;;2.33;100.00;100551.97;5048376;28;20454;-57
2022/12/09 00:22:47;;;;;;;32.60;19.58;;;;;;;2.31;100.00;100558.94;5049079;28;20053;-57
2022/12/09 00:25:17;;;;;;;35.75;20.85;;;;;;;2.27;100.00;100552.19;5048099;28;20048;-57
2022/12/09 00:27:45;;;;;;;33.75;20.92;;;;;;;2.33;100.00;100548.50;5047347;28;20083;-58
2022/12/09 00:30:14;;;;;;;35.05;20.83;;;;;;;2.34;100.00;100548.44;5048254;28;20143;-58
2022/12/09 00:32:42;;;;;;;34.60;21.48;;;;;;;2.27;100.00;100548.75;5052331;28;20128;-58
2022/12/09 00:35:10;;;;;;;36.63;22.25;;;;;;;2.28;100.00;100553.03;5050507;28;20419;-51
2022/12/09 00:37:38;;;;;;;37.20;22.90;;;;;;;2.25;100.00;100553.13;5048643;28;20407;-51
2022/12/09 00:40:09;;;;;;;36.83;20.95;;;;;;;2.27;100.00;100548.75;5051413;28;20083;-50
2022/12/09 00:42:39;;;;;;;36.13;21.95;;;;;;;2.22;100.00;100558.44;5052321;28;20404;-51
2022/12/09 00:45:09;;;;;;;36.00;21.45;;;;;;;2.17;100.00;100556.84;5052077;28;20045;-51
2022/12/09 00:47:37;;;;;;;37.17;22.90;;;;;;;2.22;100.00;100554.06;5051781;28;20049;-52
2022/12/09 00:50:07;;;;;;;34.53;20.75;;;;;;;2.19;100.00;100549.84;5051932;28;20059;-52
2022/12/09 00:52:36;;;;;;;37.22;21.85;;;;;;;2.15;100.00;100553.44;5052290;28;20049;-49
2022/12/09 00:55:05;;;;;;;36.42;23.05;;;;;;;2.13;100.00;100546.63;5052231;28;20056;-52
2022/12/09 00:57:33;;;;;;;41.05;22.67;;;;;;;2.07;100.00;100562.41;5052274;28;20542;-54
2022/12/09 01:00:04;;;;;;;35.90;21.90;;;;;;;2.06;100.00;100561.56;5055603;28;20056;-53
2022/12/09 01:02:34;;;;;;;39.55;23.45;;;;;;;2.03;100.00;100553.88;5055835;28;20076;-50
2022/12/09 01:05:03;;;;;;;36.63;21.98;;;;;;;1.95;100.00;100554.16;5056252;28;20053;-50
2022/12/09 01:07:32;;;;;;;37.17;22.05;;;;;;;1.95;100.00;100556.75;5052219;28;20493;-50
2022/12/09 01:10:01;;;;;;;36.95;22.67;;;;;;;1.98;100.00;100551.44;5052643;28;20449;-52
2022/12/09 01:12:29;;;;;;;37.38;21.25;;;;;;;1.98;100.00;100555.78;5054750;28;20127;-51
2022/12/09 01:14:57;;;;;;;37.78;23.10;;;;;;;1.96;100.00;100558.41;5055946;28;20053;-51
2022/12/09 01:17:27;;;;;;;39.58;22.92;;;;;;;1.97;100.00;100561.88;5055782;28;20048;-50
2022/12/09 01:19:55;;;;;;;36.28;21.80;;;;;;;1.93;100.00;100557.69;5055540;28;20056;-52
2022/12/09 01:22:23;;;;;;;39.10;23.20;;;;;;;1.92;100.00;100556.81;5055967;28;20049;-51
2022/12/09 01:24:51;;;;;;;35.67;21.65;;;;;;;1.95;100.00;100558.47;5055727;28;20565;-49
2022/12/09 01:27:20;;;;;;;41.42;22.77;;;;;;;1.91;100.00;100562.94;5055745;28;20166;-50
2022/12/09 01:29:48;;;;;;;35.17;20.95;;;;;;;1.94;100.00;100568.00;5055220;28;20043;-49
2022/12/09 01:32:17;;;;;;;36.78;22.25;;;;;;;1.92;100.00;100556.00;5055341;28;20396;-53
2022/12/09 01:34:47;;;;;;;35.28;21.30;;;;;;;1.88;100.00;100565.59;5055268;28;20048;-50
2022/12/09 01:37:15;;;;;;;34.05;20.67;;;;;;;1.83;100.00;100563.19;5055049;28;20052;-53
2022/12/09 01:39:43;;;;;;;35.13;22.20;;;;;;;1.80;100.00;100567.59;5055262;28;20506;-53
2022/12/09 01:42:18;;;;;;;36.25;21.15;;;;;;;1.79;100.00;100571.97;5055345;28;20043;-53
2022/12/09 01:45:20;;;;;;;34.97;20.25;;;;;;;1.79;100.00;100566.78;5053996;28;20041;-54
2022/12/09 01:47:51;;;;;;;34.35;21.25;;;;;;;1.76;100.00;100574.66;5055232;28;20491;-53
2022/12/09 01:50:22;;;;;;;35.22;20.75;;;;;;;1.73;100.00;100571.31;5054964;28;20045;-48
2022/12/09 01:52:51;;;;;;;32.28;19.13;;;;;;;1.68;100.00;100574.06;5054791;28;20492;-53
2022/12/09 01:55:19;;;;;;;34.83;20.77;;;;;;;1.66;100.00;100578.44;5054863;28;20106;-52
2022/12/09 01:57:48;;;;;;;33.05;19.15;;;;;;;1.55;100.00;100578.78;5052917;28;20053;-60
2022/12/09 02:00:17;;;;;;;33.70;19.85;;;;;;;1.59;100.00;100580.38;5050263;28;20148;-51
2022/12/09 02:02:48;;;;;;;38.45;20.10;;;;;;;1.62;100.00;100571.66;5052969;28;20691;-49
2022/12/09 02:05:18;;;;;;;37.20;21.27;;;;;;;1.49;100.00;100572.06;5054792;28;20521;-50
2022/12/09 02:07:48;;;;;;;36.35;20.40;;;;;;;1.49;100.00;100572.06;5054513;28;20052;-52
2022/12/09 02:10:18;;;;;;;37.25;19.55;;;;;;;1.49;100.00;100579.81;5054502;28;20208;-58
2022/12/09 02:12:57;;;;;;;37.63;20.67;;;;;;;1.56;100.00;100575.28;5054356;28;20438;-51
2022/12/09 02:15:32;;;;;;;37.47;20.08;;;;;;;1.61;100.00;100573.41;5054278;28;20049;-53
2022/12/09 02:18:12;;;;;;;36.85;19.90;;;;;;;1.58;100.00;100572.66;5051806;28;20041;-51
2022/12/09 02:20:43;;;;;;;32.80;19.05;;;;;;;1.62;100.00;100572.53;5050237;28;20118;-53
2022/12/09 02:23:19;;;;;;;33.97;19.88;;;;;;;1.60;100.00;100570.88;5054595;28;20047;-51
2022/12/09 02:25:52;;;;;;;36.78;20.15;;;;;;;1.62;100.00;100574.25;5054245;28;20510;-49
2022/12/09 02:28:56;;;;;;;32.38;18.88;;;;;;;1.62;100.00;100567.34;5054607;28;20052;-50
2022/12/09 02:31:43;;;;;;;32.25;18.60;;;;;;;1.63;100.00;100563.00;5053946;28;20056;-50
2022/12/09 02:34:17;;;;;;;36.33;19.30;;;;;;;1.52;100.00;100566.75;5052331;28;20037;-53
2022/12/09 02:36:55;;;;;;;34.00;19.63;;;;;;;1.60;100.00;100550.97;5050749;28;20714;-51
2022/12/09 02:39:28;;;;;;;33.95;19.55;;;;;;;1.61;100.00;100557.84;5053898;28;20058;-52
2022/12/09 02:42:00;;;;;;;37.80;19.92;;;;;;;1.63;100.00;100550.03;5053386;28;20053;-50
2022/12/09 02:44:30;;;;;;;38.03;19.83;;;;;;;1.61;100.00;100557.84;5048483;28;20057;-48
2022/12/09 02:46:59;;;;;;;36.33;19.98;;;;;;;1.59;100.00;100551.03;5051045;28;20045;-51
2022/12/09 02:49:31;;;;;;;37.50;19.50;;;;;;;1.59;100.00;100553.63;5052611;28;20403;-49
2022/12/09 02:52:00;;;;;;;34.60;17.35;;;;;;;1.60;100.00;100553.56;5053888;28;20045;-50
2022/12/09 02:54:31;;;;;;;35.17;18.73;;;;;;;1.59;100.00;100551.03;5053728;28;20060;-50
2022/12/09 02:57:05;;;;;;;33.85;19.20;;;;;;;1.55;100.00;100559.78;5053647;28;20047;-52
2022/12/09 02:59:33;;;;;;;33.30;18.85;;;;;;;1.50;100.00;100555.59;5053739;28;20110;-53
2022/12/09 03:02:14;;;;;;;33.67;18.77;;;;;;;1.49;100.00;100545.28;5053333;28;20056;-50
2022/12/09 03:04:48;;;;;;;32.28;17.50;;;;;;;1.42;100.00;100552.41;5053339;28;20048;-51
2022/12/09 03:07:23;;;;;;;32.95;17.35;;;;;;;1.44;100.00;100542.00;5053504;28;20052;-53
2022/12/09 03:10:02;;;;;;;31.17;16.13;;;;;;;1.42;100.00;100543.78;5051382;28;20051;-53
2022/12/09 03:12:35;;;;;;;31.50;17.45;;;;;;;1.43;100.00;100548.06;5049735;28;20063;-52
2022/12/09 03:15:06;;;;;;;28.08;16.17;;;;;;;1.44;100.00;100542.84;5052212;28;20049;-50
2022/12/09 03:17:36;;;;;;;27.75;15.88;;;;;;;1.47;100.00;100541.88;5053605;28;20414;-52
2022/12/09 03:20:12;;;;;;;29.45;16.42;;;;;;;1.51;100.00;100546.94;5053578;28;20380;-51
2022/12/09 03:22:43;;;;;;;31.10;16.58;;;;;;;1.46;100.00;100542.78;5052629;28;20049;-50
2022/12/09 03:25:18;;;;;;;28.75;15.88;;;;;;;1.49;100.00;100553.06;5053202;28;20041;-50
2022/12/09 03:27:53;;;;;;;32.42;16.48;;;;;;;1.46;100.00;100554.00;5053180;28;20064;-52
2022/12/09 03:30:22;;;;;;;31.13;16.00;;;;;;;1.47;100.00;100539.28;5052880;28;20059;-55
2022/12/09 03:32:52;;;;;;;26.23;14.40;;;;;;;1.45;100.00;100536.75;5050839;28;20063;-53
2022/12/09 03:35:29;;;;;;;23.33;12.55;;;;;;;1.40;100.00;100543.81;5049379;28;20447;-58
2022/12/09 03:38:00;;;;;;;22.40;11.75;;;;;;;1.41;100.00;100537.75;5052789;28;20055;-59
2022/12/09 03:40:30;;;;;;;21.20;12.15;;;;;;;1.44;100.00;100534.22;5050796;28;20057;-58
2022/12/09 03:43:02;;;;;;;23.85;12.43;;;;;;;1.43;100.00;100532.53;5046390;28;20060;-58
2022/12/09 03:45:31;;;;;;;24.63;13.60;;;;;;;1.43;100.00;100528.19;5047677;28;20053;-58
2022/12/09 03:48:01;;;;;;;27.45;14.10;;;;;;;1.45;100.00;100526.38;5052288;28;20128;-58
2022/12/09 03:50:40;;;;;;;27.92;14.63;;;;;;;1.41;100.00;100519.63;5051610;28;20063;-58
2022/12/09 03:53:14;;;;;;;30.90;15.25;;;;;;;1.37;100.00;100525.78;5049281;28;20739;-58
2022/12/09 03:55:48;;;;;;;29.52;14.80;;;;;;;1.38;100.00;100521.44;5049232;28;20722;-58
2022/12/09 03:58:17;;;;;;;26.13;14.82;;;;;;;1.31;100.00;100515.59;5047202;28;20390;-58
2022/12/09 04:00:45;;;;;;;26.15;15.15;;;;;;;1.23;100.00;100515.88;5052135;28;20049;-59
2022/12/09 04:03:14;;;;;;;26.88;14.30;;;;;;;1.25;100.00;100514.06;5048275;28;20053;-58
2022/12/09 04:05:44;;;;;;;25.83;14.25;;;;;;;1.24;100.00;100509.81;5049044;28;20405;-58
2022/12/09 04:08:12;;;;;;;26.92;15.63;;;;;;;1.25;100.00;100510.63;5048887;28;20048;-58
2022/12/09 04:10:40;;;;;;;27.40;14.23;;;;;;;1.22;100.00;100511.56;5051706;28;20091;-59
2022/12/09 04:13:09;;;;;;;29.02;15.35;;;;;;;1.21;100.00;100515.06;5052436;28;20060;-59
2022/12/09 04:15:37;;;;;;;30.05;14.65;;;;;;;1.20;100.00;100513.38;5052643;28;20051;-58
2022/12/09 04:18:05;;;;;;;28.90;15.57;;;;;;;1.20;100.00;100509.94;5052505;28;20052;-58
2022/12/09 04:20:34;;;;;;;28.15;15.18;;;;;;;1.22;100.00;100510.75;5052666;28;20068;-58
2022/12/09 04:23:03;;;;;;;27.50;14.23;;;;;;;1.18;100.00;100516.00;5050227;28;20069;-58
2022/12/09 04:25:32;;;;;;;26.65;14.32;;;;;;;1.19;100.00;100514.28;5048159;28;20041;-58
2022/12/09 04:28:00;;;;;;;27.20;14.82;;;;;;;1.15;100.00;100516.09;5048775;28;20095;-59
2022/12/09 04:30:28;;;;;;;26.70;15.23;;;;;;;1.15;100.00;100520.44;5050697;28;20136;-58
2022/12/09 04:32:59;;;;;;;29.85;15.43;;;;;;;1.19;100.00;100519.47;5049086;28;20053;-58
2022/12/09 04:35:28;;;;;;;28.40;15.18;;;;;;;1.20;100.00;100510.78;5052610;28;20143;-58
2022/12/09 04:37:56;;;;;;;28.80;14.90;;;;;;;1.25;100.00;100513.22;5055928;28;20451;-58
2022/12/09 04:40:26;;;;;;;29.05;15.05;;;;;;;1.23;100.00;100515.00;5055492;28;20072;-59
2022/12/09 04:42:54;;;;;;;28.98;15.20;;;;;;;1.25;100.00;100510.63;5051248;28;20605;-58
2022/12/09 04:45:23;;;;;;;26.45;14.82;;;;;;;1.26;100.00;100520.13;5054298;28;20042;-58
2022/12/09 04:47:51;;;;;;;28.27;14.68;;;;;;;1.29;100.00;100525.19;5054825;28;20412;-59
2022/12/09 04:50:19;;;;;;;28.92;15.07;;;;;;;1.25;100.00;100523.59;5050308;28;20114;-58
2022/12/09 04:52:47;;;;;;;24.02;14.15;;;;;;;1.26;100.00;100517.53;5052434;28;20057;-59
2022/12/09 04:55:16;;;;;;;27.17;14.80;;;;;;;1.30;100.00;100522.53;5056184;28;20103;-52
2022/12/09 04:57:45;;;;;;;27.70;14.88;;;;;;;1.32;100.00;100517.31;5056041;28;20135;-50
2022/12/09 05:00:15;;;;;;;25.67;14.15;;;;;;;1.33;100.00;100527.63;5056028;28;20507;-50
2022/12/09 05:02:43;;;;;;;26.45;14.27;;;;;;;1.31;100.00;100525.97;5055897;28;20047;-54
2022/12/09 05:05:11;;;;;;;27.38;15.07;;;;;;;1.34;100.00;100512.94;5055955;28;20053;-54
2022/12/09 05:07:40;;;;;;;26.17;14.70;;;;;;;1.31;100.00;100511.28;5054505;28;20087;-53
2022/12/09 05:10:09;;;;;;;28.33;15.23;;;;;;;1.34;100.00;100520.72;5052248;28;20519;-49
2022/12/09 05:12:38;;;;;;;25.83;15.07;;;;;;;1.34;100.00;100520.72;5052087;28;20080;-51
2022/12/09 05:15:09;;;;;;;26.27;13.80;;;;;;;1.38;100.00;100519.72;5051983;28;20060;-52
2022/12/09 05:17:37;;;;;;;29.92;15.88;;;;;;;1.40;100.00;100517.91;5055280;28;20124;-50
2022/12/09 05:20:08;;;;;;;29.05;15.45;;;;;;;1.36;100.00;100518.91;5055861;28;20120;-52
2022/12/09 05:22:36;;;;;;;29.83;14.65;;;;;;;1.37;100.00;100520.59;5055936;28;20152;-51
2022/12/09 05:25:06;;;;;;;26.35;13.70;;;;;;;1.47;100.00;100521.16;5054640;28;20500;-49
2022/12/09 05:27:34;;;;;;;26.10;13.63;;;;;;;1.45;100.00;100517.78;5055443;28;20053;-52
2022/12/09 05:30:03;;;;;;;25.35;13.88;;;;;;;1.48;100.00;100513.31;5055253;28;20075;-52
2022/12/09 05:32:34;;;;;;;26.48;14.18;;;;;;;1.47;100.00;100516.84;5055558;28;20523;-52
2022/12/09 05:35:02;;;;;;;25.27;13.98;;;;;;;1.47;100.00;100514.25;5055458;28;20055;-50
2022/12/09 05:37:31;;;;;;;26.88;14.95;;;;;;;1.51;100.00;100505.47;5055645;28;20044;-50
2022/12/09 05:39:59;;;;;;;25.02;13.93;;;;;;;1.55;100.00;100513.13;5053686;28;20045;-52
2022/12/09 05:42:28;;;;;;;27.63;14.52;;;;;;;1.45;100.00;100500.47;5051662;28;20641;-58
2022/12/09 05:44:56;;;;;;;27.83;15.05;;;;;;;1.44;100.00;100509.13;5049532;28;20141;-58
2022/12/09 05:47:24;;;;;;;24.88;14.38;;;;;;;1.47;100.00;100503.00;5050868;28;20063;-58
2022/12/09 05:49:54;;;;;;;27.48;13.55;;;;;;;1.49;100.00;100502.06;5051346;28;20056;-58
2022/12/09 05:52:23;;;;;;;26.80;13.77;;;;;;;1.50;100.00;100503.78;5050538;28;20049;-58
2022/12/09 05:54:51;;;;;;;27.02;15.35;;;;;;;1.46;100.00;100499.59;5051484;28;20470;-58
2022/12/09 05:57:19;;;;;;;25.63;13.70;;;;;;;1.43;100.00;100501.41;5050970;28;20404;-58
2022/12/09 05:59:48;;;;;;;25.95;13.73;;;;;;;1.35;100.00;100512.06;5054679;28;20053;-58
2022/12/09 06:02:16;;;;;;;28.00;14.60;;;;;;;1.34;100.00;100508.59;5054069;28;20384;-58
2022/12/09 06:04:45;;;;;;;24.27;13.45;;;;;;;1.36;100.00;100511.13;5051386;28;20502;-58
2022/12/09 06:07:15;;;;;;;26.35;13.88;;;;;;;1.36;100.00;100511.13;5052210;28;20136;-58
2022/12/09 06:09:44;;;;;;;28.95;13.90;;;;;;;1.30;100.00;100504.41;5051219;28;20045;-58
2022/12/09 06:12:12;;;;;;;23.77;13.38;;;;;;;1.26;100.00;100512.34;5051840;28;20033;-58
2022/12/09 06:14:40;;;;;;;24.15;13.88;;;;;;;1.30;100.00;100496.63;5054871;28;20053;-58
2022/12/09 06:17:09;;;;;;;26.40;13.80;;;;;;;1.29;100.00;100499.28;5053085;28;20099;-58
2022/12/09 06:19:38;;;;;;;25.13;12.90;;;;;;;1.24;100.00;100496.84;5049437;28;20143;-58
2022/12/09 06:22:06;;;;;;;25.27;13.38;;;;;;;1.25;100.00;100503.69;5051187;28;20045;-58
2022/12/09 06:24:36;;;;;;;24.27;13.52;;;;;;;1.24;100.00;100509.81;5050553;28;20051;-58
2022/12/09 06:27:04;;;;;;;28.02;13.35;;;;;;;1.19;100.00;100509.09;5051127;28;20095;-58
2022/12/09 06:29:33;;;;;;;24.35;13.02;;;;;;;1.16;100.00;100510.03;5048288;28;20511;-59
2022/12/09 06:32:01;;;;;;;25.17;12.40;;;;;;;1.18;100.00;100508.22;5050721;28;20393;-58
2022/12/09 06:34:30;;;;;;;23.63;12.68;;;;;;;1.17;100.00;100500.50;5053045;28;20503;-59
2022/12/09 06:36:59;;;;;;;25.20;13.43;;;;;;;1.18;100.00;100505.63;5054028;28;20435;-58
2022/12/09 06:39:27;;;;;;;24.45;13.10;;;;;;;1.08;100.00;100501.66;5054059;28;20049;-49
2022/12/09 06:41:58;;;;;;;25.23;13.43;;;;;;;0.94;100.00;100508.97;5054207;28;20099;-53
2022/12/09 06:44:26;;;;;;;24.25;12.43;;;;;;;0.80;100.00;100506.81;5054260;28;20117;-52
2022/12/09 06:46:55;;;;;;;24.35;12.52;;;;;;;0.83;100.00;100505.00;5054311;28;20041;-52
2022/12/09 06:49:23;;;;;;;23.30;12.15;;;;;;;0.89;100.00;100506.56;5053916;28;20159;-53
2022/12/09 06:51:52;;;;;;;22.90;12.98;;;;;;;0.86;100.00;100508.38;5053835;28;20083;-58
2022/12/09 06:54:20;;;;;;;27.13;13.32;;;;;;;0.61;100.00;100509.09;5054232;28;20041;-58
2022/12/09 06:56:49;;;;;;;24.58;12.75;;;;;;;0.63;100.00;100505.59;5051110;28;20068;-58
2022/12/09 06:59:19;;;;;;;24.75;12.32;;;;;;;0.58;100.00;100506.63;5047891;28;20503;-58
2022/12/09 07:01:47;;;;;;;22.92;12.20;;;;;;;0.59;100.00;100508.31;5050477;28;20036;-58
2022/12/09 07:04:16;;;;;;;23.73;12.43;;;;;;;0.52;100.00;100505.06;5050446;28;20136;-58
2022/12/09 07:06:45;;;;;;;23.40;12.68;;;;;;;0.45;100.00;100501.78;5053767;28;20049;-58
2022/12/09 07:09:16;;;;;;;25.55;13.90;;;;;;;0.38;100.00;100504.59;5053375;28;20103;-58
2022/12/09 07:11:45;;;;;;;24.05;11.93;;;;;;;0.39;100.00;100507.13;5051374;28;20045;-58
2022/12/09 07:14:15;;;;;;;25.88;12.63;;;;;;;0.34;100.00;100511.56;5047766;28;20056;-58
2022/12/09 07:16:45;;;;;;;26.92;13.27;;;;;;;0.37;100.00;100516.69;5050163;28;20163;-58
2022/12/09 07:19:18;;;;;;;22.98;12.52;;;;;;;0.34;100.00;100514.16;5049705;28;20103;-57
2022/12/09 07:21:47;;;;;;;24.52;12.95;;;;;;;0.27;100.00;100512.66;5049569;28;20049;-58
2022/12/09 07:24:17;;;;;;;24.98;13.60;;;;;;;0.21;100.00;100518.00;5050617;28;20059;-58
2022/12/09 07:26:45;;;;;;;25.52;13.32;;;;;;;0.11;100.00;100523.41;5049143;28;20132;-58
2022/12/09 07:29:13;;;;;;;24.63;13.43;;;;;;;0.02;100.00;100523.66;5047423;28;20088;-58
2022/12/09 07:31:43;;;;;;;24.20;11.73;;;;;;;-0.01;100.00;100534.09;5049208;28;20084;-58
2022/12/09 07:34:13;;;;;;;24.27;12.80;;;;;;;-0.10;100.00;100530.00;5049490;28;20535;-58
2022/12/09 07:36:42;;;;;;;24.35;13.23;;;;;;;-0.11;100.00;100530.91;5048625;28;20499;-58
2022/12/09 07:39:12;;;;;;;24.52;13.25;;;;;;;-0.15;100.00;100528.41;5049547;28;20496;-58
2022/12/09 07:41:41;;;;;;;29.80;14.27;;;;;;;-0.14;100.00;100533.53;5049954;28;20194;-58
2022/12/09 07:44:11;;;;;;;28.35;13.93;;;;;;;-0.16;100.00;100535.34;5051926;28;20056;-58
2022/12/09 07:46:40;;;;;;;26.35;14.32;;;;;;;-0.22;100.00;100531.19;5053124;28;20059;-58
2022/12/09 07:49:10;;;;;;;30.30;15.10;;;;;;;-0.25;100.00;100532.97;5052575;28;20132;-58
2022/12/09 07:51:41;;;;;;;28.30;14.00;;;;;;;-0.20;100.00;100534.56;5052795;28;20400;-58
2022/12/09 07:54:12;;;;;;;29.27;14.82;;;;;;;-0.22;100.00;100535.47;5049568;28;20048;-57
2022/12/09 07:56:41;;;;;;;29.48;14.63;;;;;;;-0.19;100.00;100525.91;5050622;28;20047;-58
2022/12/09 07:59:12;;;;;;;33.90;16.50;;;;;;;-0.24;100.00;100534.69;5051109;28;20087;-58
2022/12/09 08:01:40;;;;;;;32.70;16.80;;;;;;;-0.26;100.00;100533.84;5049278;28;20155;-58
2022/12/09 08:04:09;;;;;;;35.25;15.98;;;;;;;-0.14;100.00;100530.13;5051697;28;20045;-58
2022/12/09 08:06:38;;;;;;;33.35;17.00;;;;;;;-0.17;100.00;100538.81;5048940;28;20053;-58
2022/12/09 08:09:11;;;;;;;33.72;15.88;;;;;;;-0.13;100.00;100535.25;5049025;28;20496;-57
2022/12/09 08:11:41;;;;;;;32.67;17.55;;;;;;;-0.12;100.00;100536.09;5049398;28;20053;-57
2022/12/09 08:14:11;;;;;;;35.50;17.00;;;;;;;-0.11;100.00;100537.78;5049428;28;20118;-57
2022/12/09 08:16:41;;;;;;;37.00;17.83;;;;;;;-0.11;100.00;100543.84;5051295;28;20057;-58
2022/12/09 08:19:11;;;;;;;35.45;18.40;;;;;;;-0.08;100.00;100543.75;5052257;28;20053;-57
2022/12/09 08:21:40;;;;;;;38.08;18.92;;;;;;;-0.06;100.00;100551.44;5048330;28;20061;-58
2022/12/09 08:24:12;;;;;;;37.72;18.50;;;;;;;-0.03;100.00;100546.19;5049807;28;20099;-58
2022/12/09 08:26:41;;;;;;;39.20;19.48;;;;;;;0.01;100.00;100542.63;5051294;28;20053;-57
2022/12/09 08:29:11;;;;;;;37.85;19.60;;;;;;;0.04;100.00;100550.34;5048346;28;20041;-57
2022/12/09 08:31:41;;;;;;;42.92;19.65;;;;;;;0.07;100.00;100545.09;5047778;28;20049;-57
2022/12/09 08:34:11;;;;;;;44.17;19.67;;;;;;;0.09;100.00;100545.88;5049723;28;20059;-57
2022/12/09 08:36:40;;;;;;;42.25;19.42;;;;;;;0.17;100.00;100546.50;5052494;28;20049;-57
2022/12/09 08:39:08;;;;;;;44.33;21.08;;;;;;;0.20;100.00;100547.34;5052513;28;20056;-57
2022/12/09 08:41:39;;;;;;;41.13;20.13;;;;;;;0.23;100.00;100548.13;5051956;28;20040;-57
2022/12/09 08:44:10;;;;;;;45.75;21.63;;;;;;;0.30;100.00;100544.47;5052289;28;20373;-57
2022/12/09 08:46:41;;;;;;;44.90;21.83;;;;;;;0.33;100.00;100544.38;5052401;28;20048;-56
2022/12/09 08:49:10;;;;;;;46.63;22.15;;;;;;;0.40;100.00;100546.81;5051959;28;20145;-56
2022/12/09 08:51:39;;;;;;;45.15;20.33;;;;;;;0.44;100.00;100540.66;5050105;28;20045;-56
2022/12/09 08:54:08;;;;;;;49.67;23.23;;;;;;;0.47;100.00;100538.81;5048771;28;20049;-56
2022/12/09 08:56:38;;;;;;;42.35;20.27;;;;;;;0.54;100.00;100543.81;5048532;28;20056;-56
2022/12/09 08:59:06;;;;;;;45.95;21.48;;;;;;;0.55;100.00;100537.75;5046146;28;20052;-56
2022/12/09 09:01:35;;;;;;;42.03;19.63;;;;;;;0.55;100.00;100540.34;5049228;28;20052;-56
2022/12/09 09:04:06;;;;;;;41.90;20.60;;;;;;;0.59;100.00;100544.56;5050124;28;20052;-57
2022/12/09 09:06:36;;;;;;;44.25;21.10;;;;;;;0.65;100.00;100536.59;5047299;28;20076;-56
2022/12/09 09:09:06;;;;;;;44.97;20.77;;;;;;;0.71;100.00;100549.38;5051455;28;20512;-57
2022/12/09 09:11:35;;;;;;;42.60;20.08;;;;;;;0.76;100.00;100551.81;5047692;28;20055;-57
2022/12/09 09:14:07;;;;;;;41.35;18.63;;;;;;;0.80;100.00;100562.03;5046345;28;20055;-57
2022/12/09 09:16:38;;;;;;;36.33;17.77;;;;;;;0.82;100.00;100557.66;5048215;28;20119;-57
2022/12/09 09:19:07;;;;;;;35.17;16.55;;;;;;;0.87;100.00;100562.69;5050876;28;20106;-57
2022/12/09 09:21:35;;;;;;;36.45;17.42;;;;;;;0.92;100.00;100562.59;5051934;28;20048;-56
2022/12/09 09:24:09;;;;;;;36.28;16.63;;;;;;;0.97;100.00;100564.13;5052074;28;20045;-57
2022/12/09 09:26:40;;;;;;;32.97;16.15;;;;;;;1.02;100.00;100569.16;5051837;28;20049;-57
2022/12/09 09:29:13;;;;;;;32.10;16.80;;;;;;;1.06;100.00;100563.00;5052007;28;20048;-57
2022/12/09 09:31:41;;;;;;;29.33;14.85;;;;;;;1.04;100.00;100566.53;5052116;28;20057;-57
2022/12/09 09:34:10;;;;;;;27.73;14.50;;;;;;;1.01;100.00;100573.50;5052075;28;20128;-57
2022/12/09 09:36:40;;;;;;;30.33;14.07;;;;;;;1.07;100.00;100566.47;5051694;28;20055;-56
2022/12/09 09:39:12;;;;;;;27.67;13.32;;;;;;;1.14;100.00;100568.78;5051656;28;20130;-56
2022/12/09 09:41:49;;;;;;;26.35;13.98;;;;;;;1.20;100.00;100578.16;5052744;28;20084;-57
2022/12/09 09:44:26;;;;;;;29.23;14.82;;;;;;;1.24;100.00;100576.28;5055497;28;20060;-57
2022/12/09 09:46:56;;;;;;;28.08;14.52;;;;;;;1.26;100.00;100572.78;5055377;28;20099;-57
2022/12/09 09:49:35;;;;;;;32.50;14.80;;;;;;;1.28;100.00;100576.19;5055226;28;20041;-58
2022/12/09 09:52:08;;;;;;;29.23;15.32;;;;;;;1.33;100.00;100581.19;5052854;28;20056;-57
2022/12/09 09:54:38;;;;;;;28.50;14.63;;;;;;;1.36;100.00;100575.91;5050847;28;20049;-57
2022/12/09 09:57:13;;;;;;;31.08;15.73;;;;;;;1.40;100.00;100579.28;5051353;28;20542;-57
2022/12/09 09:59:58;;;;;;;33.65;17.65;;;;;;;1.42;100.00;100573.16;5050815;28;20059;-57
2022/12/09 10:02:56;;;;;;;33.70;15.70;;;;;;;1.41;100.00;100570.59;5054943;28;20041;-57
2022/12/09 10:05:30;;;;;;;39.08;16.42;;;;;;;1.47;100.00;100573.84;5051178;28;20051;-57
2022/12/09 10:08:14;;;;;;;32.38;15.73;;;;;;;1.50;100.00;100565.09;5051744;28;20049;-57
2022/12/09 10:10:51;;;;;;;28.77;14.55;;;;;;;1.47;100.00;100563.50;5054727;28;20063;-57
2022/12/09 10:13:30;;;;;;;29.38;14.93;;;;;;;1.38;100.00;100561.19;5049488;28;20651;-56
2022/12/09 10:16:08;;;;;;;31.58;15.60;;;;;;;1.40;100.00;100558.53;5050651;28;20126;-57
2022/12/09 10:18:46;;;;;;;33.80;14.80;;;;;;;1.48;100.00;100564.31;5049522;28;20790;-57
2022/12/09 10:21:16;;;;;;;29.67;14.15;;;;;;;1.46;100.00;100561.78;5052527;28;20415;-56
2022/12/09 10:23:46;;;;;;;29.80;14.82;;;;;;;1.57;100.00;100556.25;5053998;28;20076;-57
2022/12/09 10:26:19;;;;;;;31.10;15.52;;;;;;;1.66;100.00;100558.56;5050626;28;20115;-57
2022/12/09 10:28:53;;;;;;;31.40;15.48;;;;;;;1.74;100.00;100555.69;5049415;28;20072;-57
2022/12/09 10:31:23;;;;;;;29.88;14.90;;;;;;;1.75;100.00;100553.97;5054110;28;20140;-57
2022/12/09 10:33:52;;;;;;;32.30;15.55;;;;;;;1.77;100.00;100552.16;5054268;28;20052;-57
2022/12/09 10:36:26;;;;;;;30.15;15.98;;;;;;;1.78;100.00;100552.09;5051150;28;20048;-57
2022/12/09 10:39:03;;;;;;;31.30;14.85;;;;;;;1.77;100.00;100557.34;5050668;28;20418;-57
2022/12/09 10:44:28;;;;;;;30.80;15.02;;;;;;;1.88;100.00;100550.03;5054393;28;20056;-58
2022/12/09 10:47:01;;;;;;;28.40;14.55;;;;;;;1.90;100.00;100550.03;5053612;28;20045;-55
2022/12/09 10:49:34;;;;;;;28.60;14.32;;;;;;;1.84;100.00;100546.72;5049591;28;20045;-57
2022/12/09 10:52:04;;;;;;;26.52;15.25;;;;;;;1.91;100.00;100541.31;5051497;28;20073;-57
2022/12/09 10:54:36;;;;;;;27.60;14.80;;;;;;;1.96;100.00;100550.63;5051777;28;20511;-58
2022/12/09 10:57:23;;;;;;;28.60;14.75;;;;;;;1.85;100.00;100540.66;5050197;28;20055;-57
2022/12/09 11:00:01;;;;;;;31.00;14.50;;;;;;;1.89;100.00;100546.56;5053577;28;20041;-57
2022/12/09 11:02:34;;;;;;;31.55;15.57;;;;;;;1.91;100.00;100546.50;5052373;28;20060;-58
2022/12/09 11:05:24;;;;;;;28.75;14.07;;;;;;;1.99;100.00;100541.91;5053608;28;20110;-57
2022/12/09 11:07:55;;;;;;;26.98;14.13;;;;;;;2.02;100.00;100541.81;5045983;28;20420;-58
2022/12/09 11:10:26;;;;;;;30.42;15.43;;;;;;;2.10;100.00;100545.00;5053700;28;20049;-57
2022/12/09 11:13:02;;;;;;;26.77;14.63;;;;;;;2.11;100.00;100541.47;5050478;28;20052;-57
2022/12/09 11:15:37;;;;;;;32.08;15.35;;;;;;;2.11;100.00;100536.28;5048071;28;20064;-57
2022/12/09 11:18:15;;;;;;;27.02;13.95;;;;;;;2.08;100.00;100536.41;5050116;28;20064;-57
2022/12/09 11:20:54;;;;;;;29.13;13.68;;;;;;;2.15;100.00;100535.28;5051676;28;20144;-57
2022/12/09 11:23:23;;;;;;;27.00;13.98;;;;;;;2.13;100.00;100536.25;5048762;28;20466;-56
2022/12/09 11:25:53;;;;;;;24.80;11.95;;;;;;;2.17;100.00;100533.50;5051376;28;20091;-58
2022/12/09 11:28:27;;;;;;;25.42;13.38;;;;;;;2.11;100.00;100533.69;5053117;28;20052;-57